createdAt,value
2023-05-19T00:01:22.218Z,2.80
2023-05-19T00:03:59.184Z,2.85
2023-05-19T00:06:27.912Z,2.72
2023-05-19T00:08:59.419Z,2.80
2023-05-19T00:11:27.849Z,2.67
2023-05-19T00:13:55.863Z,2.97
2023-05-19T00:16:23.916Z,3.13
2023-05-19T00:18:51.792Z,2.92
2023-05-19T00:21:19.085Z,3.25
2023-05-19T00:23:46.362Z,2.50
2023-05-19T00:26:13.816Z,3.27
2023-05-19T00:28:41.187Z,3.22
2023-05-19T00:31:08.630Z,2.97
2023-05-19T00:33:36.259Z,2.55
2023-05-19T00:36:04.199Z,3.30
2023-05-19T00:38:32.220Z,2.70
2023-05-19T00:40:59.915Z,3.03
2023-05-19T00:43:27.351Z,3.13
2023-05-19T00:45:54.804Z,2.92
2023-05-19T00:48:22.455Z,2.90
2023-05-19T00:50:51.092Z,3.17
2023-05-19T00:53:19.114Z,3.03
2023-05-19T00:55:47.048Z,3.10
2023-05-19T00:58:15.116Z,2.72
2023-05-19T01:00:43.323Z,3.13
2023-05-19T01:03:13.732Z,3.20
2023-05-19T01:05:53.871Z,2.88
2023-05-19T01:08:21.195Z,2.85
2023-05-19T01:10:48.526Z,3.20
2023-05-19T01:13:16.007Z,3.38
2023-05-19T01:15:56.887Z,2.77
2023-05-19T01:18:33.183Z,2.90
2023-05-19T01:21:23.714Z,3.03
2023-05-19T01:24:03.776Z,3.08
2023-05-19T01:26:46.013Z,2.80
2023-05-19T01:29:13.192Z,2.80
2023-05-19T01:31:42.189Z,3.00
2023-05-19T01:34:10.920Z,3.33
2023-05-19T01:36:38.641Z,3.33
2023-05-19T01:39:06.254Z,3.10
2023-05-19T01:41:34.636Z,3.07
2023-05-19T01:44:01.959Z,3.22
2023-05-19T01:46:29.386Z,3.25
2023-05-19T01:48:56.707Z,3.30
2023-05-19T01:51:24.046Z,2.78
2023-05-19T01:53:51.366Z,3.10
2023-05-19T01:56:22.453Z,3.10
2023-05-19T01:58:54.138Z,3.20
2023-05-19T02:01:30.835Z,3.05
2023-05-19T02:04:10.512Z,3.40
2023-05-19T02:06:50.477Z,3.20
2023-05-19T02:09:33.309Z,3.05
2023-05-19T02:12:12.841Z,2.72
2023-05-19T02:14:41.431Z,3.05
2023-05-19T02:17:09.451Z,3.20
2023-05-19T02:19:39.427Z,3.00
2023-05-19T02:22:07.186Z,3.42
2023-05-19T02:24:34.582Z,3.20
2023-05-19T02:27:01.864Z,3.40
2023-05-19T02:29:30.636Z,3.90
2023-05-19T02:31:58.077Z,2.90
2023-05-19T02:34:25.630Z,3.17
2023-05-19T02:36:52.934Z,3.60
2023-05-19T02:39:20.185Z,3.47
2023-05-19T02:41:47.434Z,2.92
2023-05-19T02:44:14.721Z,3.37
2023-05-19T02:46:41.969Z,3.30
2023-05-19T02:49:09.214Z,3.92
2023-05-19T02:51:36.464Z,3.20
2023-05-19T02:54:03.655Z,3.40
2023-05-19T02:56:30.990Z,3.70
2023-05-19T02:58:59.314Z,3.60
2023-05-19T03:01:26.817Z,3.47
2023-05-19T03:03:54.235Z,3.47
2023-05-19T03:06:23.515Z,3.55
2023-05-19T03:08:50.978Z,3.30
2023-05-19T03:11:18.330Z,3.60
2023-05-19T03:13:45.580Z,3.70
2023-05-19T03:16:13.985Z,3.35
2023-05-19T03:18:41.780Z,4.20
2023-05-19T03:21:09.148Z,3.80
2023-05-19T03:23:36.332Z,3.97
2023-05-19T03:26:03.683Z,3.60
2023-05-19T03:28:31.003Z,4.18
2023-05-19T03:30:58.377Z,3.70
2023-05-19T03:33:28.197Z,3.47
2023-05-19T03:35:55.647Z,4.00
2023-05-19T03:38:22.923Z,4.00
2023-05-19T03:40:50.178Z,4.15
2023-05-19T03:43:17.491Z,3.70
2023-05-19T03:45:45.012Z,3.23
2023-05-19T03:48:12.852Z,3.53
2023-05-19T03:50:40.278Z,4.18
2023-05-19T03:53:07.658Z,3.83
2023-05-19T03:55:37.252Z,4.07
2023-05-19T03:58:04.518Z,4.07
2023-05-19T04:00:31.983Z,3.60
2023-05-19T04:03:00.728Z,3.95
2023-05-19T04:05:30.566Z,3.60
2023-05-19T04:07:57.869Z,4.35
2023-05-19T04:10:25.229Z,3.80
2023-05-19T04:12:52.819Z,3.55
2023-05-19T04:15:20.198Z,3.88
2023-05-19T04:17:47.527Z,4.18
2023-05-19T04:20:14.846Z,4.78
2023-05-19T04:22:42.165Z,4.10
2023-05-19T04:25:09.589Z,4.20
2023-05-19T04:27:38.818Z,4.32
2023-05-19T04:30:07.025Z,4.22
2023-05-19T04:32:34.418Z,5.05
2023-05-19T04:35:03.380Z,4.30
2023-05-19T04:37:30.635Z,4.15
2023-05-19T04:39:57.903Z,4.68
2023-05-19T04:42:26.361Z,4.30
2023-05-19T04:44:53.632Z,4.25
2023-05-19T04:47:21.677Z,4.00
2023-05-19T04:49:49.121Z,4.50
2023-05-19T04:52:21.737Z,4.28
2023-05-19T04:54:48.996Z,4.72
2023-05-19T04:57:16.266Z,4.25
2023-05-19T04:59:43.888Z,4.80
2023-05-19T05:02:11.231Z,4.60
2023-05-19T05:04:42.513Z,4.82
2023-05-19T05:07:10.004Z,4.15
2023-05-19T05:09:37.454Z,4.28
2023-05-19T05:12:04.959Z,4.40
2023-05-19T05:14:32.430Z,4.28
2023-05-19T05:16:59.781Z,4.18
2023-05-19T05:19:27.276Z,4.55
2023-05-19T05:21:54.872Z,4.38
2023-05-19T05:24:22.333Z,4.13
2023-05-19T05:26:49.701Z,4.40
2023-05-19T05:29:17.024Z,4.20
2023-05-19T05:31:44.229Z,4.13
2023-05-19T05:34:11.525Z,4.38
2023-05-19T05:36:38.756Z,4.07
2023-05-19T05:39:06.078Z,4.57
2023-05-19T05:41:35.510Z,4.13
2023-05-19T05:44:03.566Z,4.15
2023-05-19T05:46:31.409Z,4.30
2023-05-19T05:48:58.805Z,4.27
2023-05-19T05:51:26.505Z,4.20
2023-05-19T05:53:55.006Z,4.25
2023-05-19T05:56:22.414Z,4.70
2023-05-19T05:58:50.569Z,4.25
2023-05-19T06:01:17.829Z,4.10
2023-05-19T06:03:45.993Z,4.13
2023-05-19T06:06:14.373Z,4.55
2023-05-19T06:08:41.689Z,4.07
2023-05-19T06:11:09.390Z,4.00
2023-05-19T06:13:37.278Z,4.33
2023-05-19T06:16:04.746Z,4.10
2023-05-19T06:18:32.701Z,4.30
2023-05-19T06:21:00.153Z,4.25
2023-05-19T06:23:29.045Z,4.35
2023-05-19T06:25:57.916Z,3.90
2023-05-19T06:28:25.203Z,4.10
2023-05-19T06:30:52.437Z,4.35
2023-05-19T06:33:19.653Z,4.30
2023-05-19T06:35:46.877Z,4.07
2023-05-19T06:38:14.199Z,4.00
2023-05-19T06:40:41.948Z,3.60
2023-05-19T06:43:09.313Z,4.07
2023-05-19T06:45:36.659Z,3.63
2023-05-19T06:48:04.039Z,3.75
2023-05-19T06:50:31.829Z,3.60
2023-05-19T06:52:59.471Z,3.67
2023-05-19T06:55:26.697Z,3.50
2023-05-19T06:57:54.119Z,3.53
2023-05-19T07:00:23.089Z,3.80
2023-05-19T07:02:51.316Z,3.77
2023-05-19T07:05:18.679Z,3.35
2023-05-19T07:07:46.000Z,3.47
2023-05-19T07:10:13.352Z,3.20
2023-05-19T07:12:40.615Z,3.38
2023-05-19T07:15:08.189Z,3.07
2023-05-19T07:17:35.874Z,3.30
2023-05-19T07:20:06.678Z,3.30
2023-05-19T07:22:35.294Z,3.38
2023-05-19T07:25:02.623Z,3.42
2023-05-19T07:27:31.081Z,3.10
2023-05-19T07:29:58.330Z,2.80
2023-05-19T07:32:25.979Z,3.13
2023-05-19T07:34:53.257Z,3.20
2023-05-19T07:37:20.898Z,3.10
2023-05-19T07:39:48.143Z,2.77
2023-05-19T07:42:15.521Z,2.70
2023-05-19T07:44:42.881Z,2.90
2023-05-19T07:47:10.478Z,2.95
2023-05-19T07:49:37.709Z,2.90
2023-05-19T07:52:05.074Z,2.70
2023-05-19T07:54:32.307Z,3.10
2023-05-19T07:56:59.536Z,2.72
2023-05-19T07:59:26.947Z,2.67
2023-05-19T08:01:54.166Z,2.63
2023-05-19T08:04:21.464Z,2.60
2023-05-19T08:06:48.895Z,3.03
2023-05-19T08:09:16.382Z,2.78
2023-05-19T08:11:44.928Z,2.80
2023-05-19T08:14:12.220Z,3.25
2023-05-19T08:16:41.431Z,2.60
2023-05-19T08:19:09.106Z,2.50
2023-05-19T08:21:36.778Z,2.70
2023-05-19T08:24:04.419Z,3.10
2023-05-19T08:26:31.763Z,2.38
2023-05-19T08:28:59.138Z,2.83
2023-05-19T08:31:26.522Z,2.33
2023-05-19T08:33:53.771Z,2.90
2023-05-19T08:36:22.005Z,3.00
2023-05-19T08:38:49.436Z,2.97
2023-05-19T08:41:17.787Z,2.50
2023-05-19T08:43:45.419Z,2.80
2023-05-19T08:46:15.135Z,2.85
2023-05-19T08:48:43.302Z,2.60
2023-05-19T08:51:33.234Z,2.95
2023-05-19T08:54:04.991Z,2.63
2023-05-19T08:56:32.310Z,2.80
2023-05-19T08:59:00.521Z,2.80
2023-05-19T09:01:28.997Z,2.75
2023-05-19T09:03:56.338Z,2.60
2023-05-19T09:06:24.083Z,2.60
2023-05-19T09:08:51.479Z,2.30
2023-05-19T09:11:18.894Z,2.40
2023-05-19T09:13:46.313Z,2.10
2023-05-19T09:16:13.603Z,1.80
2023-05-19T09:18:40.996Z,1.63
2023-05-19T09:21:08.539Z,2.08
2023-05-19T09:23:36.207Z,2.00
2023-05-19T09:26:05.108Z,2.20
2023-05-19T09:28:35.597Z,2.13
2023-05-19T09:31:06.740Z,1.93
2023-05-19T09:33:37.976Z,2.72
2023-05-19T09:36:06.616Z,2.40
2023-05-19T09:38:33.950Z,2.65
2023-05-19T09:41:01.433Z,2.78
2023-05-19T09:43:29.646Z,1.90
2023-05-19T09:46:08.075Z,1.77
2023-05-19T09:48:36.588Z,2.10
2023-05-19T09:51:05.379Z,2.22
2023-05-19T09:53:32.745Z,2.03
2023-05-19T09:56:02.100Z,2.43
2023-05-19T09:58:35.446Z,2.13
2023-05-19T10:01:04.224Z,2.30
2023-05-19T10:03:35.478Z,2.20
2023-05-19T10:06:02.956Z,2.45
2023-05-19T10:08:30.934Z,2.40
2023-05-19T10:10:58.631Z,2.50
2023-05-19T10:13:26.709Z,2.75
2023-05-19T10:15:58.943Z,2.40
2023-05-19T10:18:30.695Z,2.53
2023-05-19T10:20:58.579Z,2.47
2023-05-19T10:23:26.219Z,2.83
2023-05-19T10:25:56.179Z,2.42
2023-05-19T10:28:28.046Z,2.63
2023-05-19T10:30:57.385Z,2.60
2023-05-19T10:33:30.064Z,2.27
2023-05-19T10:36:00.844Z,2.92
2023-05-19T10:38:42.945Z,2.88
2023-05-19T10:41:29.770Z,2.63
2023-05-19T10:44:05.098Z,3.10
2023-05-19T10:46:32.506Z,2.50
2023-05-19T10:49:00.343Z,2.90
2023-05-19T10:51:34.171Z,2.85
2023-05-19T10:54:16.012Z,2.80
2023-05-19T10:56:47.139Z,2.75
2023-05-19T10:59:33.464Z,2.30
2023-05-19T11:02:04.860Z,2.40
2023-05-19T11:04:51.127Z,2.70
2023-05-19T11:07:20.467Z,2.53
2023-05-19T11:09:53.466Z,2.75
2023-05-19T11:12:24.675Z,3.10
2023-05-19T11:14:56.175Z,2.65
2023-05-19T11:17:25.763Z,2.55
2023-05-19T11:19:54.870Z,2.30
2023-05-19T11:22:26.250Z,2.58
2023-05-19T11:24:55.709Z,2.87
2023-05-19T11:27:31.632Z,2.63
2023-05-19T11:30:14.614Z,2.45
2023-05-19T11:32:42.776Z,2.60
2023-05-19T11:35:11.081Z,2.53
2023-05-19T11:37:40.618Z,3.10
2023-05-19T11:40:08.785Z,2.63
2023-05-19T11:42:37.180Z,2.58
2023-05-19T11:45:05.239Z,2.25
2023-05-19T11:47:42.093Z,2.65
2023-05-19T11:50:14.706Z,2.50
2023-05-19T11:52:45.713Z,2.53
2023-05-19T11:55:16.626Z,2.30
2023-05-19T11:58:03.088Z,2.78
2023-05-19T12:00:39.867Z,2.78
2023-05-19T12:03:08.176Z,3.33
2023-05-19T12:05:41.992Z,2.30
2023-05-19T12:08:10.303Z,2.30
2023-05-19T12:10:37.891Z,2.17
2023-05-19T12:13:08.095Z,2.40
2023-05-19T12:15:35.817Z,2.73
2023-05-19T12:18:03.478Z,2.63
2023-05-19T12:20:36.117Z,2.70
2023-05-19T12:23:03.912Z,2.50
2023-05-19T12:25:32.476Z,2.20
2023-05-19T12:28:00.738Z,2.60
2023-05-19T12:30:32.634Z,2.35
2023-05-19T12:33:00.772Z,2.78
2023-05-19T12:35:29.009Z,2.72
2023-05-19T12:37:56.667Z,2.45
2023-05-19T12:40:24.025Z,2.40
2023-05-19T12:42:53.407Z,2.30
2023-05-19T12:45:25.810Z,2.45
2023-05-19T12:47:53.040Z,2.50
2023-05-19T12:50:20.448Z,2.50
2023-05-19T12:52:52.191Z,2.33
2023-05-19T12:55:21.031Z,2.20
2023-05-19T12:57:57.547Z,2.78
2023-05-19T13:00:28.005Z,2.50
2023-05-19T13:02:59.026Z,2.53
2023-05-19T13:05:27.240Z,2.50
2023-05-19T13:08:02.205Z,2.30
2023-05-19T13:10:31.367Z,2.42
2023-05-19T13:13:00.396Z,2.35
2023-05-19T13:15:29.380Z,3.08
2023-05-19T13:17:56.666Z,3.00
2023-05-19T13:20:26.277Z,3.47
2023-05-19T13:22:55.488Z,2.80
2023-05-19T13:25:22.738Z,3.15
2023-05-19T13:27:50.395Z,3.58
2023-05-19T13:30:18.963Z,3.40
2023-05-19T13:32:46.394Z,2.88
2023-05-19T13:35:14.508Z,2.90
2023-05-19T13:37:45.020Z,2.60
2023-05-19T13:40:12.478Z,2.95
2023-05-19T13:42:39.792Z,2.97
2023-05-19T13:45:07.353Z,2.40
2023-05-19T13:47:34.619Z,2.70
2023-05-19T13:50:02.978Z,2.60
2023-05-19T13:52:30.584Z,2.92
2023-05-19T13:54:57.919Z,2.63
2023-05-19T13:57:28.215Z,2.42
2023-05-19T14:00:02.601Z,2.50
2023-05-19T14:02:31.261Z,2.67
2023-05-19T14:04:58.756Z,2.75
2023-05-19T14:07:26.369Z,2.77
2023-05-19T14:09:53.720Z,2.40
2023-05-19T14:12:27.625Z,2.60
2023-05-19T14:14:58.870Z,2.65
2023-05-19T14:17:28.728Z,2.90
2023-05-19T14:19:56.106Z,2.80
2023-05-19T14:22:23.270Z,2.60
2023-05-19T14:24:50.470Z,2.90
2023-05-19T14:27:17.787Z,2.83
2023-05-19T14:29:45.125Z,2.78
2023-05-19T14:32:13.940Z,2.50
2023-05-19T14:34:41.472Z,2.80
2023-05-19T14:37:09.902Z,2.70
2023-05-19T14:39:37.135Z,2.88
2023-05-19T14:42:04.348Z,2.55
2023-05-19T14:44:34.876Z,2.73
2023-05-19T14:47:03.025Z,2.47
2023-05-19T14:49:30.994Z,3.00
2023-05-19T14:51:58.195Z,2.90
2023-05-19T14:54:25.462Z,2.30
2023-05-19T14:56:52.832Z,2.70
2023-05-19T14:59:21.632Z,2.47
2023-05-19T15:01:48.936Z,3.28
2023-05-19T15:04:16.373Z,2.53
2023-05-19T15:06:44.333Z,2.30
2023-05-19T15:09:14.942Z,2.40
2023-05-19T15:11:42.174Z,2.35
2023-05-19T15:14:09.449Z,2.40
2023-05-19T15:16:36.869Z,2.60
2023-05-19T15:19:04.204Z,2.40
2023-05-19T15:21:31.457Z,2.27
2023-05-19T15:23:58.661Z,2.17
2023-05-19T15:26:29.055Z,2.40
2023-05-19T15:28:56.959Z,2.17
2023-05-19T15:31:24.259Z,2.25
2023-05-19T15:33:51.660Z,2.00
2023-05-19T15:36:19.122Z,2.25
2023-05-19T15:38:46.624Z,2.40
2023-05-19T15:41:13.969Z,2.22
2023-05-19T15:43:41.511Z,2.08
2023-05-19T15:46:08.786Z,2.30
2023-05-19T15:48:37.226Z,2.20
2023-05-19T15:51:04.710Z,2.40
2023-05-19T15:53:32.051Z,2.42
2023-05-19T15:55:59.265Z,2.30
2023-05-19T15:58:26.503Z,2.97
2023-05-19T16:00:53.772Z,2.65
2023-05-19T16:03:22.601Z,2.70
2023-05-19T16:05:49.885Z,2.17
2023-05-19T16:08:17.124Z,2.42
2023-05-19T16:10:44.474Z,2.10
2023-05-19T16:13:11.934Z,2.13
2023-05-19T16:15:39.276Z,2.10
2023-05-19T16:18:06.711Z,2.15
2023-05-19T16:20:34.148Z,2.15
2023-05-19T16:23:01.807Z,2.27
2023-05-19T16:25:29.073Z,2.30
2023-05-19T16:27:56.352Z,2.38
2023-05-19T16:30:24.627Z,2.42
2023-05-19T16:32:53.740Z,2.47
2023-05-19T16:35:21.980Z,1.97
2023-05-19T16:37:49.534Z,2.20
2023-05-19T16:40:16.924Z,2.40
2023-05-19T16:42:44.201Z,2.70
2023-05-19T16:45:11.538Z,2.50
2023-05-19T16:47:39.069Z,2.27
2023-05-19T16:50:06.529Z,2.50
2023-05-19T16:52:33.804Z,2.42
2023-05-19T16:55:01.150Z,2.40
2023-05-19T16:57:28.576Z,2.47
2023-05-19T16:59:55.908Z,2.30
2023-05-19T17:02:23.140Z,2.20
2023-05-19T17:04:50.496Z,3.00
2023-05-19T17:07:18.442Z,2.70
2023-05-19T17:09:45.880Z,2.58
2023-05-19T17:12:13.313Z,2.30
2023-05-19T17:14:42.331Z,2.20
2023-05-19T17:17:09.844Z,2.50
2023-05-19T17:19:37.151Z,2.60
2023-05-19T17:22:04.432Z,2.60
2023-05-19T17:24:33.314Z,2.50
2023-05-19T17:27:01.973Z,2.40
2023-05-19T17:29:29.193Z,2.20
2023-05-19T17:31:57.785Z,2.63
2023-05-19T17:34:25.085Z,3.10
2023-05-19T17:36:52.462Z,2.40
2023-05-19T17:39:20.319Z,2.40
2023-05-19T17:41:47.682Z,2.70
2023-05-19T17:44:15.357Z,3.08
2023-05-19T17:46:42.718Z,3.00
2023-05-19T17:49:10.797Z,2.30
2023-05-19T17:51:38.363Z,2.17
2023-05-19T17:54:05.824Z,2.75
2023-05-19T17:56:34.515Z,2.10
2023-05-19T17:59:01.800Z,2.30
2023-05-19T18:01:29.385Z,2.30
2023-05-19T18:03:56.903Z,2.20
2023-05-19T18:06:25.068Z,2.83
2023-05-19T18:08:54.136Z,2.30
2023-05-19T18:11:21.618Z,2.60
2023-05-19T18:13:48.815Z,2.43
2023-05-19T18:16:16.043Z,2.90
2023-05-19T18:18:44.668Z,2.55
2023-05-19T18:21:14.573Z,2.30
2023-05-19T18:23:42.079Z,2.33
2023-05-19T18:26:09.293Z,2.30
2023-05-19T18:28:36.608Z,2.50
2023-05-19T18:31:05.495Z,2.70
2023-05-19T18:33:33.016Z,2.63
2023-05-19T18:36:00.633Z,2.33
2023-05-19T18:38:27.882Z,2.13
2023-05-19T18:40:56.660Z,2.20
2023-05-19T18:43:23.884Z,2.35
2023-05-19T18:45:51.182Z,2.17
2023-05-19T18:48:18.697Z,2.00
2023-05-19T18:50:46.529Z,2.20
2023-05-19T18:53:13.795Z,1.90
2023-05-19T18:55:41.197Z,2.33
2023-05-19T18:58:08.480Z,2.35
2023-05-19T19:00:36.702Z,2.58
2023-05-19T19:03:04.363Z,2.10
2023-05-19T19:05:31.787Z,2.20
2023-05-19T19:07:58.988Z,2.42
2023-05-19T19:10:27.104Z,2.28
2023-05-19T19:12:54.465Z,2.47
2023-05-19T19:15:21.667Z,2.53
2023-05-19T19:17:48.987Z,2.30
2023-05-19T19:20:16.365Z,2.60
2023-05-19T19:22:43.812Z,2.63
2023-05-19T19:25:11.023Z,2.60
2023-05-19T19:27:38.449Z,3.60
2023-05-19T19:30:05.888Z,2.88
2023-05-19T19:32:33.332Z,2.60
2023-05-19T19:35:00.851Z,2.22
2023-05-19T19:37:28.067Z,2.28
2023-05-19T19:39:55.587Z,2.20
2023-05-19T19:42:23.021Z,2.35
2023-05-19T19:44:50.206Z,2.85
2023-05-19T19:47:17.604Z,2.90
2023-05-19T19:49:46.056Z,2.70
2023-05-19T19:52:13.358Z,2.60
2023-05-19T19:54:40.607Z,2.67
2023-05-19T19:57:07.962Z,2.88
2023-05-19T19:59:35.459Z,2.30
2023-05-19T20:02:02.787Z,2.40
2023-05-19T20:04:30.147Z,2.30
2023-05-19T20:06:58.542Z,2.25
2023-05-19T20:09:27.032Z,2.30
2023-05-19T20:11:54.214Z,2.35
2023-05-19T20:14:21.787Z,3.25
2023-05-19T20:16:49.184Z,2.70
2023-05-19T20:19:16.660Z,2.22
2023-05-19T20:21:43.911Z,2.72
2023-05-19T20:24:11.372Z,2.40
2023-05-19T20:26:38.782Z,2.42
2023-05-19T20:29:06.122Z,2.57
2023-05-19T20:31:33.538Z,2.80
2023-05-19T20:34:01.841Z,3.03
2023-05-19T20:36:29.293Z,2.97
2023-05-19T20:38:56.721Z,2.80
2023-05-19T20:41:24.103Z,3.00
2023-05-19T20:43:51.458Z,3.10
2023-05-19T20:46:18.880Z,3.10
2023-05-19T20:48:46.292Z,3.25
2023-05-19T20:51:13.667Z,3.20
2023-05-19T20:53:41.056Z,3.23
2023-05-19T20:56:10.562Z,3.55
2023-05-19T20:58:38.428Z,3.50
2023-05-19T21:01:05.968Z,3.28
2023-05-19T21:03:33.369Z,3.20
2023-05-19T21:06:00.885Z,3.17
2023-05-19T21:08:28.163Z,3.13
2023-05-19T21:10:57.019Z,3.47
2023-05-19T21:13:24.465Z,3.50
2023-05-19T21:15:51.821Z,3.70
2023-05-19T21:18:19.194Z,3.43
2023-05-19T21:20:46.539Z,3.22
2023-05-19T21:23:13.756Z,3.40
2023-05-19T21:25:41.506Z,3.67
2023-05-19T21:28:09.670Z,3.53
2023-05-19T21:30:37.096Z,3.40
2023-05-19T21:33:04.409Z,3.30
2023-05-19T21:35:31.779Z,3.38
2023-05-19T21:38:03.923Z,3.95
2023-05-19T21:40:38.957Z,3.50
2023-05-19T21:43:06.643Z,2.80
2023-05-19T21:45:33.884Z,3.10
2023-05-19T21:48:01.192Z,3.53
2023-05-19T21:50:28.658Z,3.15
2023-05-19T21:52:55.835Z,3.00
2023-05-19T21:55:24.210Z,2.90
2023-05-19T21:57:51.510Z,3.20
2023-05-19T22:00:19.018Z,3.40
2023-05-19T22:02:46.365Z,3.05
2023-05-19T22:05:13.673Z,3.40
2023-05-19T22:07:41.084Z,3.23
2023-05-19T22:10:08.917Z,3.30
2023-05-19T22:12:36.521Z,3.40
2023-05-19T22:15:03.934Z,3.10
2023-05-19T22:17:31.760Z,3.38
2023-05-19T22:19:59.262Z,3.30
2023-05-19T22:22:26.567Z,3.30
2023-05-19T22:24:53.899Z,3.25
2023-05-19T22:27:21.139Z,3.25
2023-05-19T22:29:48.293Z,3.05
2023-05-19T22:32:18.147Z,3.00
2023-05-19T22:34:45.941Z,2.95
2023-05-19T22:37:13.242Z,3.05
2023-05-19T22:39:40.691Z,2.70
2023-05-19T22:42:08.433Z,3.10
2023-05-19T22:44:35.754Z,2.80
2023-05-19T22:47:03.128Z,2.75
2023-05-19T22:49:30.382Z,2.90
2023-05-19T22:51:57.772Z,2.55
2023-05-19T22:54:25.133Z,2.80
2023-05-19T22:56:52.840Z,2.70
2023-05-19T22:59:20.190Z,2.53
2023-05-19T23:01:47.649Z,3.28
2023-05-19T23:04:15.285Z,2.80
2023-05-19T23:06:42.743Z,2.78
2023-05-19T23:09:10.130Z,2.70
2023-05-19T23:11:37.515Z,2.90
2023-05-19T23:14:04.742Z,2.88
2023-05-19T23:16:32.186Z,2.75
2023-05-19T23:18:59.548Z,2.90
2023-05-19T23:21:26.901Z,3.00
2023-05-19T23:23:54.189Z,2.90
2023-05-19T23:26:21.782Z,3.28
2023-05-19T23:28:49.016Z,3.03
2023-05-19T23:31:16.239Z,3.17
2023-05-19T23:33:43.504Z,2.90
2023-05-19T23:36:11.221Z,2.85
2023-05-19T23:38:38.729Z,3.15
2023-05-19T23:41:06.241Z,2.80
2023-05-19T23:43:33.593Z,2.70
2023-05-19T23:46:01.138Z,2.90
2023-05-19T23:48:33.556Z,3.13
2023-05-19T23:51:00.828Z,3.05
2023-05-19T23:53:28.162Z,2.95
2023-05-19T23:55:56.547Z,2.60
2023-05-19T23:58:26.038Z,2.87
